Map

Track Data

SID SEASON NUMBER BASIN SUBBASIN NAME ISO_TIME NATURE LAT LON WMO_WIND WMO_PRES WMO_AGENCY TRACK_TYPE DIST2LAND LANDFALL IFLAG USA_AGENCY USA_ATCF_ID USA_LAT USA_LON USA_RECORD USA_STATUS USA_WIND USA_PRES USA_SSHS USA_R34_NE USA_R34_SE USA_R34_SW USA_R34_NW USA_R50_NE USA_R50_SE USA_R50_SW USA_R50_NW USA_R64_NE USA_R64_SE USA_R64_SW USA_R64_NW USA_POCI USA_ROCI USA_RMW USA_EYE TOKYO_LAT TOKYO_LON TOKYO_GRADE TOKYO_WIND TOKYO_PRES TOKYO_R50_DIR TOKYO_R50_LONG TOKYO_R50_SHORT TOKYO_R30_DIR TOKYO_R30_LONG TOKYO_R30_SHORT TOKYO_LAND CMA_LAT CMA_LON CMA_CAT CMA_WIND CMA_PRES HKO_LAT HKO_LON HKO_CAT HKO_WIND HKO_PRES NEWDELHI_LAT NEWDELHI_LON NEWDELHI_GRADE NEWDELHI_WIND NEWDELHI_PRES NEWDELHI_CI NEWDELHI_DP NEWDELHI_POCI REUNION_LAT REUNION_LON REUNION_TYPE REUNION_WIND REUNION_PRES REUNION_TNUM REUNION_CI REUNION_RMW REUNION_R34_NE REUNION_R34_SE REUNION_R34_SW REUNION_R34_NW REUNION_R50_NE REUNION_R50_SE REUNION_R50_SW REUNION_R50_NW REUNION_R64_NE REUNION_R64_SE REUNION_R64_SW REUNION_R64_NW BOM_LAT BOM_LON BOM_TYPE BOM_WIND BOM_PRES BOM_TNUM BOM_CI BOM_RMW BOM_R34_NE BOM_R34_SE BOM_R34_SW BOM_R34_NW BOM_R50_NE BOM_R50_SE BOM_R50_SW BOM_R50_NW BOM_R64_NE BOM_R64_SE BOM_R64_SW BOM_R64_NW BOM_ROCI BOM_POCI BOM_EYE BOM_POS_METHOD BOM_PRES_METHOD NADI_LAT NADI_LON NADI_CAT NADI_WIND NADI_PRES WELLINGTON_LAT WELLINGTON_LON WELLINGTON_WIND WELLINGTON_PRES DS824_LAT DS824_LON DS824_STAGE DS824_WIND DS824_PRES TD9636_LAT TD9636_LON TD9636_STAGE TD9636_WIND TD9636_PRES TD9635_LAT TD9635_LON TD9635_WIND TD9635_PRES TD9635_ROCI NEUMANN_LAT NEUMANN_LON NEUMANN_CLASS NEUMANN_WIND NEUMANN_PRES MLC_LAT MLC_LON MLC_CLASS MLC_WIND MLC_PRES USA_GUST BOM_GUST BOM_GUST_PER REUNION_GUST REUNION_GUST_PER USA_SEAHGT USA_SEARAD_NE USA_SEARAD_SE USA_SEARAD_SW USA_SEARAD_NW STORM_SPEED STORM_DIR
1928202N16116 1928 35 WP MM NOT_NAMED 1928-07-19 22:00:00 NR 16.1000 115.800 main 417 417 __________O___ -1 16.1000 115.800 2 13 282
1928202N16116 1928 35 WP MM NOT_NAMED 1928-07-20 00:00:00 NR 16.1933 115.361 main 460 470 __________P___ -1 16.1933 115.361 2 13 282
1928202N16116 1928 35 WP MM NOT_NAMED 1928-07-20 03:00:00 NR 16.3286 114.704 main 525 460 __________P___ -1 16.3286 114.704 2 13 282
1928202N16116 1928 35 WP MM NOT_NAMED 1928-07-20 06:00:00 NR 16.4545 114.053 main 460 393 __________P___ -1 16.4545 114.053 2 13 281
1928202N16116 1928 35 WP MM NOT_NAMED 1928-07-20 09:00:00 NR 16.5665 113.411 main 393 377 __________P___ -1 16.5665 113.411 2 12 280
1928202N16116 1928 35 WP MM NOT_NAMED 1928-07-20 10:00:00 NR 16.6000 113.200 main 377 338 __________O___ -1 16.6000 113.200 2 12 279
1928202N16116 1928 35 WP MM NOT_NAMED 1928-07-20 12:00:00 NR 16.6608 112.783 main 338 294 __________P___ -1 16.6608 112.783 2 12 278
1928202N16116 1928 35 WP MM NOT_NAMED 1928-07-20 15:00:00 NR 16.7398 112.163 main 294 239 __________P___ -1 16.7398 112.163 2 12 277
1928202N16116 1928 35 WP MM NOT_NAMED 1928-07-20 18:00:00 NR 16.8098 111.543 main 239 193 __________P___ -1 16.8098 111.543 2 12 277
1928202N16116 1928 35 WP MM NOT_NAMED 1928-07-20 21:00:00 NR 16.8771 110.914 main 193 180 __________P___ -1 16.8771 110.914 2 12 276
1928202N16116 1928 35 WP MM NOT_NAMED 1928-07-20 22:00:00 NR 16.9000 110.700 main 180 148 __________O___ -1 16.9000 110.700 2 13 278
1928202N16116 1928 35 WP MM NOT_NAMED 1928-07-21 00:00:00 NR 16.9602 110.262 main 148 123 __________P___ -1 16.9602 110.262 2 13 278
1928202N16116 1928 35 WP MM NOT_NAMED 1928-07-21 03:00:00 NR 17.0509 109.591 main 123 123 __________P___ -1 17.0509 109.591 2 13 278
1928202N16116 1928 35 WP MM NOT_NAMED 1928-07-21 06:00:00 NR 17.1310 108.911 main 131 92 __________P___ -1 17.1310 108.911 2 13 276
1928202N16116 1928 35 WP MM NOT_NAMED 1928-07-21 09:00:00 NR 17.1882 108.228 main 92 79 __________P___ -1 17.1882 108.228 2 13 275
1928202N16116 1928 35 WP MM NOT_NAMED 1928-07-21 10:00:00 NR 17.2000 108.000 main 79 43 __________O___ -1 17.2000 108.000 2 13 272
1928202N16116 1928 35 WP MM NOT_NAMED 1928-07-21 12:00:00 NR 17.2111 107.546 main 43 0 __________P___ -1 17.2111 107.546 2 13 270
1928202N16116 1928 35 WP MM NOT_NAMED 1928-07-21 15:00:00 NR 17.2008 106.869 main 0 0 __________P___ -1 17.2008 106.869 2 13 268
1928202N16116 1928 35 WP MM NOT_NAMED 1928-07-21 18:00:00 NR 17.1667 106.195 main 0 0 __________P___ -1 17.1667 106.195 2 13 266
1928202N16116 1928 35 WP MM NOT_NAMED 1928-07-21 21:00:00 NR 17.1179 105.524 main 0 0 __________P___ -1 17.1179 105.524 2 13 266
1928202N16116 1928 35 WP MM NOT_NAMED 1928-07-21 22:00:00 NR 17.1000 105.300 main 0 __________O___ -1 17.1000 105.300 7 13 265

Digital Typhoon Data and Search

About IBTrACS Database

This database is a web-friendly format of International Best Track Archive for Climate Stewardship (IBTrACS), a global best track data archive curated by NOAA dating back to 1842.

Updated: 2021-12-03